Terminal Aerodrome Forecast
Issued by NWS Billings, MT

Home | Current Version | Previous Version | Text Only | Print | Product List | Glossary On
Versions: 1 2 3 4 5 6 7 8 9 10 11 12 13 14 15 16 17 18 19 20 21 22 23 24 25 26 27 28 29 30
000
FTUS45 KBYZ 041451 AAA
TAFSHR
TAF AMD
KSHR 041451Z 0415/0512 14013G19KT P6SM VCSH FEW060 BKN100
     FM042200 12013KT P6SM VCTS SCT050CB
     FM050200 12011KT P6SM SCT050=

USA.gov is the U.S. government's official web portal to all federal, state and local government web resources and services.